sensor_id;sensor_type;location;lat;lon;timestamp;temperature;humidity
66522;SHT31;53349;53.538;8.584;2022-12-10T00:01:25;0.70;80.31
66522;SHT31;53349;53.538;8.584;2022-12-10T00:03:51;0.72;80.36
66522;SHT31;53349;53.538;8.584;2022-12-10T00:06:19;0.67;80.43
66522;SHT31;53349;53.538;8.584;2022-12-10T00:08:46;0.67;80.39
66522;SHT31;53349;53.538;8.584;2022-12-10T00:11:13;0.65;80.43
66522;SHT31;53349;53.538;8.584;2022-12-10T00:13:40;0.63;80.52
66522;SHT31;53349;53.538;8.584;2022-12-10T00:16:08;0.60;80.47
66522;SHT31;53349;53.538;8.584;2022-12-10T00:18:34;0.57;80.56
66522;SHT31;53349;53.538;8.584;2022-12-10T00:21:08;0.52;80.50
66522;SHT31;53349;53.538;8.584;2022-12-10T00:23:34;0.48;80.58
66522;SHT31;53349;53.538;8.584;2022-12-10T00:26:11;0.43;80.60
66522;SHT31;53349;53.538;8.584;2022-12-10T00:28:37;0.46;80.64
66522;SHT31;53349;53.538;8.584;2022-12-10T00:31:05;0.46;80.56
66522;SHT31;53349;53.538;8.584;2022-12-10T00:33:31;0.45;80.49
66522;SHT31;53349;53.538;8.584;2022-12-10T00:36:01;0.43;80.48
66522;SHT31;53349;53.538;8.584;2022-12-10T00:38:27;0.43;80.50
66522;SHT31;53349;53.538;8.584;2022-12-10T00:40:53;0.41;80.50
66522;SHT31;53349;53.538;8.584;2022-12-10T00:43:18;0.39;80.45
66522;SHT31;53349;53.538;8.584;2022-12-10T00:45:46;0.38;80.35
66522;SHT31;53349;53.538;8.584;2022-12-10T00:48:11;0.38;80.38
66522;SHT31;53349;53.538;8.584;2022-12-10T00:50:37;0.41;80.31
66522;SHT31;53349;53.538;8.584;2022-12-10T00:53:02;0.39;80.18
66522;SHT31;53349;53.538;8.584;2022-12-10T00:55:28;0.39;80.13
66522;SHT31;53349;53.538;8.584;2022-12-10T00:57:53;0.39;80.19
66522;SHT31;53349;53.538;8.584;2022-12-10T01:00:19;0.39;80.19
66522;SHT31;53349;53.538;8.584;2022-12-10T01:02:44;0.39;80.12
66522;SHT31;53349;53.538;8.584;2022-12-10T01:05:09;0.41;79.99
66522;SHT31;53349;53.538;8.584;2022-12-10T01:07:35;0.39;80.03
66522;SHT31;53349;53.538;8.584;2022-12-10T01:10:00;0.39;79.98
66522;SHT31;53349;53.538;8.584;2022-12-10T01:12:26;0.36;79.96
66522;SHT31;53349;53.538;8.584;2022-12-10T01:14:51;0.38;80.02
66522;SHT31;53349;53.538;8.584;2022-12-10T01:17:16;0.39;80.07
66522;SHT31;53349;53.538;8.584;2022-12-10T01:19:42;0.38;80.03
66522;SHT31;53349;53.538;8.584;2022-12-10T01:22:07;0.42;79.95
66522;SHT31;53349;53.538;8.584;2022-12-10T01:24:32;0.45;79.84
66522;SHT31;53349;53.538;8.584;2022-12-10T01:26:58;0.45;79.71
66522;SHT31;53349;53.538;8.584;2022-12-10T01:29:25;0.48;79.57
66522;SHT31;53349;53.538;8.584;2022-12-10T01:31:54;0.49;79.61
66522;SHT31;53349;53.538;8.584;2022-12-10T01:34:20;0.52;79.53
66522;SHT31;53349;53.538;8.584;2022-12-10T01:36:49;0.46;79.60
66522;SHT31;53349;53.538;8.584;2022-12-10T01:39:16;0.49;79.46
66522;SHT31;53349;53.538;8.584;2022-12-10T01:41:48;0.48;79.40
66522;SHT31;53349;53.538;8.584;2022-12-10T01:46:41;0.49;79.28
66522;SHT31;53349;53.538;8.584;2022-12-10T01:49:10;0.48;79.29
66522;SHT31;53349;53.538;8.584;2022-12-10T01:51:38;0.50;79.14
66522;SHT31;53349;53.538;8.584;2022-12-10T01:54:10;0.56;79.22
66522;SHT31;53349;53.538;8.584;2022-12-10T01:56:38;0.55;79.12
66522;SHT31;53349;53.538;8.584;2022-12-10T01:59:06;0.55;79.05
66522;SHT31;53349;53.538;8.584;2022-12-10T02:01:44;0.53;78.91
66522;SHT31;53349;53.538;8.584;2022-12-10T02:04:29;0.53;78.89
66522;SHT31;53349;53.538;8.584;2022-12-10T02:07:32;0.57;78.87
66522;SHT31;53349;53.538;8.584;2022-12-10T02:12:56;0.66;78.72
66522;SHT31;53349;53.538;8.584;2022-12-10T02:15:29;0.63;78.58
66522;SHT31;53349;53.538;8.584;2022-12-10T02:17:59;0.62;78.59
66522;SHT31;53349;53.538;8.584;2022-12-10T02:20:36;0.63;78.62
66522;SHT31;53349;53.538;8.584;2022-12-10T02:23:07;0.59;78.52
66522;SHT31;53349;53.538;8.584;2022-12-10T02:28:23;0.60;78.58
66522;SHT31;53349;53.538;8.584;2022-12-10T02:30:52;0.63;78.63
66522;SHT31;53349;53.538;8.584;2022-12-10T02:33:18;0.66;78.53
66522;SHT31;53349;53.538;8.584;2022-12-10T02:35:47;0.65;78.52
66522;SHT31;53349;53.538;8.584;2022-12-10T02:38:19;0.69;78.54
66522;SHT31;53349;53.538;8.584;2022-12-10T02:40:51;0.72;78.53
66522;SHT31;53349;53.538;8.584;2022-12-10T02:43:17;0.70;78.40
66522;SHT31;53349;53.538;8.584;2022-12-10T02:45:43;0.69;78.47
66522;SHT31;53349;53.538;8.584;2022-12-10T02:48:10;0.70;78.42
66522;SHT31;53349;53.538;8.584;2022-12-10T02:50:36;0.76;78.40
66522;SHT31;53349;53.538;8.584;2022-12-10T02:53:02;0.75;78.25
66522;SHT31;53349;53.538;8.584;2022-12-10T02:55:31;0.72;78.28
66522;SHT31;53349;53.538;8.584;2022-12-10T02:58:13;0.80;78.25
66522;SHT31;53349;53.538;8.584;2022-12-10T03:00:50;0.73;78.31
66522;SHT31;53349;53.538;8.584;2022-12-10T03:03:22;0.75;78.42
66522;SHT31;53349;53.538;8.584;2022-12-10T03:05:58;0.73;78.46
66522;SHT31;53349;53.538;8.584;2022-12-10T03:08:30;0.77;78.51
66522;SHT31;53349;53.538;8.584;2022-12-10T03:11:04;0.75;78.39
66522;SHT31;53349;53.538;8.584;2022-12-10T03:13:43;0.76;78.26
66522;SHT31;53349;53.538;8.584;2022-12-10T03:16:10;0.77;78.15
66522;SHT31;53349;53.538;8.584;2022-12-10T03:18:37;0.77;78.16
66522;SHT31;53349;53.538;8.584;2022-12-10T03:21:05;0.73;77.94
66522;SHT31;53349;53.538;8.584;2022-12-10T03:23:33;0.72;78.04
66522;SHT31;53349;53.538;8.584;2022-12-10T03:26:00;0.69;78.18
66522;SHT31;53349;53.538;8.584;2022-12-10T03:28:26;0.65;78.19
66522;SHT31;53349;53.538;8.584;2022-12-10T03:30:52;0.66;78.22
66522;SHT31;53349;53.538;8.584;2022-12-10T03:33:19;0.66;78.19
66522;SHT31;53349;53.538;8.584;2022-12-10T03:35:45;0.67;78.10
66522;SHT31;53349;53.538;8.584;2022-12-10T03:38:11;0.69;78.04
66522;SHT31;53349;53.538;8.584;2022-12-10T03:40:36;0.67;78.02
66522;SHT31;53349;53.538;8.584;2022-12-10T03:43:02;0.69;77.94
66522;SHT31;53349;53.538;8.584;2022-12-10T03:45:27;0.70;77.80
66522;SHT31;53349;53.538;8.584;2022-12-10T03:47:53;0.65;77.78
66522;SHT31;53349;53.538;8.584;2022-12-10T03:50:18;0.62;77.71
66522;SHT31;53349;53.538;8.584;2022-12-10T03:52:44;0.62;77.70
66522;SHT31;53349;53.538;8.584;2022-12-10T03:55:09;0.63;77.74
66522;SHT31;53349;53.538;8.584;2022-12-10T03:57:35;0.60;77.76
66522;SHT31;53349;53.538;8.584;2022-12-10T04:00:01;0.57;77.70
66522;SHT31;53349;53.538;8.584;2022-12-10T04:02:26;0.57;77.69
66522;SHT31;53349;53.538;8.584;2022-12-10T04:04:52;0.56;77.69
66522;SHT31;53349;53.538;8.584;2022-12-10T04:07:17;0.56;77.73
66522;SHT31;53349;53.538;8.584;2022-12-10T04:09:43;0.55;77.74
66522;SHT31;53349;53.538;8.584;2022-12-10T04:12:08;0.52;77.71
66522;SHT31;53349;53.538;8.584;2022-12-10T04:14:33;0.53;77.78
66522;SHT31;53349;53.538;8.584;2022-12-10T04:17:17;0.50;77.77
66522;SHT31;53349;53.538;8.584;2022-12-10T04:19:42;0.52;77.75
66522;SHT31;53349;53.538;8.584;2022-12-10T04:22:09;0.49;77.79
66522;SHT31;53349;53.538;8.584;2022-12-10T04:24:53;0.50;77.78
66522;SHT31;53349;53.538;8.584;2022-12-10T04:27:37;0.48;77.89
66522;SHT31;53349;53.538;8.584;2022-12-10T04:30:07;0.48;77.89
66522;SHT31;53349;53.538;8.584;2022-12-10T04:32:33;0.45;77.90
66522;SHT31;53349;53.538;8.584;2022-12-10T04:34:59;0.43;77.92
66522;SHT31;53349;53.538;8.584;2022-12-10T04:37:26;0.41;77.99
66522;SHT31;53349;53.538;8.584;2022-12-10T04:39:52;0.36;78.06
66522;SHT31;53349;53.538;8.584;2022-12-10T04:42:18;0.35;78.20
66522;SHT31;53349;53.538;8.584;2022-12-10T04:44:44;0.35;78.37
66522;SHT31;53349;53.538;8.584;2022-12-10T04:47:10;0.29;78.51
66522;SHT31;53349;53.538;8.584;2022-12-10T04:49:36;0.30;78.64
66522;SHT31;53349;53.538;8.584;2022-12-10T04:52:02;0.29;78.67
66522;SHT31;53349;53.538;8.584;2022-12-10T04:54:28;0.28;78.70
66522;SHT31;53349;53.538;8.584;2022-12-10T04:56:53;0.26;78.75
66522;SHT31;53349;53.538;8.584;2022-12-10T04:59:19;0.28;78.64
66522;SHT31;53349;53.538;8.584;2022-12-10T05:01:46;0.25;78.73
66522;SHT31;53349;53.538;8.584;2022-12-10T05:04:13;0.18;78.75
66522;SHT31;53349;53.538;8.584;2022-12-10T05:06:39;0.19;78.79
66522;SHT31;53349;53.538;8.584;2022-12-10T05:09:05;0.19;78.79
66522;SHT31;53349;53.538;8.584;2022-12-10T05:11:32;0.21;78.79
66522;SHT31;53349;53.538;8.584;2022-12-10T05:13:58;0.21;78.66
66522;SHT31;53349;53.538;8.584;2022-12-10T05:16:25;0.19;78.73
66522;SHT31;53349;53.538;8.584;2022-12-10T05:18:52;0.19;78.77
66522;SHT31;53349;53.538;8.584;2022-12-10T05:21:21;0.26;78.69
66522;SHT31;53349;53.538;8.584;2022-12-10T05:23:49;0.26;78.66
66522;SHT31;53349;53.538;8.584;2022-12-10T05:26:20;0.26;78.58
66522;SHT31;53349;53.538;8.584;2022-12-10T05:28:51;0.29;78.56
66522;SHT31;53349;53.538;8.584;2022-12-10T05:31:23;0.21;78.54
66522;SHT31;53349;53.538;8.584;2022-12-10T05:33:49;0.24;78.63
66522;SHT31;53349;53.538;8.584;2022-12-10T05:36:17;0.26;78.59
66522;SHT31;53349;53.538;8.584;2022-12-10T05:38:43;0.24;78.56
66522;SHT31;53349;53.538;8.584;2022-12-10T05:41:12;0.25;78.63
66522;SHT31;53349;53.538;8.584;2022-12-10T05:43:38;0.25;78.57
66522;SHT31;53349;53.538;8.584;2022-12-10T05:46:06;0.21;78.61
66522;SHT31;53349;53.538;8.584;2022-12-10T05:48:32;0.19;78.66
66522;SHT31;53349;53.538;8.584;2022-12-10T05:50:58;0.18;78.72
66522;SHT31;53349;53.538;8.584;2022-12-10T05:53:23;0.18;78.72
66522;SHT31;53349;53.538;8.584;2022-12-10T05:55:49;0.21;78.68
66522;SHT31;53349;53.538;8.584;2022-12-10T05:58:14;0.19;78.57
66522;SHT31;53349;53.538;8.584;2022-12-10T06:00:40;0.15;78.54
66522;SHT31;53349;53.538;8.584;2022-12-10T06:03:06;0.15;78.53
66522;SHT31;53349;53.538;8.584;2022-12-10T06:05:39;0.15;78.49
66522;SHT31;53349;53.538;8.584;2022-12-10T06:08:05;0.14;78.54
66522;SHT31;53349;53.538;8.584;2022-12-10T06:10:31;0.12;78.61
66522;SHT31;53349;53.538;8.584;2022-12-10T06:12:56;0.14;78.58
66522;SHT31;53349;53.538;8.584;2022-12-10T06:15:22;0.14;78.61
66522;SHT31;53349;53.538;8.584;2022-12-10T06:17:47;0.14;78.68
66522;SHT31;53349;53.538;8.584;2022-12-10T06:20:12;0.15;78.68
66522;SHT31;53349;53.538;8.584;2022-12-10T06:22:38;0.11;78.58
66522;SHT31;53349;53.538;8.584;2022-12-10T06:25:03;0.14;78.51
66522;SHT31;53349;53.538;8.584;2022-12-10T06:27:31;0.16;78.36
66522;SHT31;53349;53.538;8.584;2022-12-10T06:29:58;0.16;78.32
66522;SHT31;53349;53.538;8.584;2022-12-10T06:32:24;0.19;78.41
66522;SHT31;53349;53.538;8.584;2022-12-10T06:34:52;0.16;78.45
66522;SHT31;53349;53.538;8.584;2022-12-10T06:37:18;0.21;78.46
66522;SHT31;53349;53.538;8.584;2022-12-10T06:39:43;0.18;78.41
66522;SHT31;53349;53.538;8.584;2022-12-10T06:42:11;0.19;78.59
66522;SHT31;53349;53.538;8.584;2022-12-10T06:44:42;0.22;78.51
66522;SHT31;53349;53.538;8.584;2022-12-10T06:47:07;0.22;78.44
66522;SHT31;53349;53.538;8.584;2022-12-10T06:49:33;0.29;78.38
66522;SHT31;53349;53.538;8.584;2022-12-10T06:52:00;0.30;78.24
66522;SHT31;53349;53.538;8.584;2022-12-10T06:54:26;0.28;78.18
66522;SHT31;53349;53.538;8.584;2022-12-10T06:56:51;0.30;78.11
66522;SHT31;53349;53.538;8.584;2022-12-10T06:59:16;0.28;78.01
66522;SHT31;53349;53.538;8.584;2022-12-10T07:01:42;0.32;78.06
66522;SHT31;53349;53.538;8.584;2022-12-10T07:04:08;0.38;78.16
66522;SHT31;53349;53.538;8.584;2022-12-10T07:06:33;0.41;78.04
66522;SHT31;53349;53.538;8.584;2022-12-10T07:08:59;0.42;78.02
66522;SHT31;53349;53.538;8.584;2022-12-10T07:11:25;0.42;78.00
66522;SHT31;53349;53.538;8.584;2022-12-10T07:13:51;0.42;77.98
66522;SHT31;53349;53.538;8.584;2022-12-10T07:16:19;0.38;77.96
66522;SHT31;53349;53.538;8.584;2022-12-10T07:18:47;0.36;78.01
66522;SHT31;53349;53.538;8.584;2022-12-10T07:21:32;0.41;78.07
66522;SHT31;53349;53.538;8.584;2022-12-10T07:24:09;0.41;78.04
66522;SHT31;53349;53.538;8.584;2022-12-10T07:26:37;0.42;78.02
66522;SHT31;53349;53.538;8.584;2022-12-10T07:29:04;0.38;77.91
66522;SHT31;53349;53.538;8.584;2022-12-10T07:31:29;0.41;77.95
66522;SHT31;53349;53.538;8.584;2022-12-10T07:33:57;0.42;77.91
66522;SHT31;53349;53.538;8.584;2022-12-10T07:36:23;0.43;77.81
66522;SHT31;53349;53.538;8.584;2022-12-10T07:38:49;0.42;77.80
66522;SHT31;53349;53.538;8.584;2022-12-10T07:41:15;0.43;77.78
66522;SHT31;53349;53.538;8.584;2022-12-10T07:43:43;0.48;77.55
66522;SHT31;53349;53.538;8.584;2022-12-10T07:46:21;0.46;77.56
66522;SHT31;53349;53.538;8.584;2022-12-10T07:49:04;0.48;77.61
66522;SHT31;53349;53.538;8.584;2022-12-10T07:51:30;0.49;77.68
66522;SHT31;53349;53.538;8.584;2022-12-10T07:53:56;0.49;77.72
66522;SHT31;53349;53.538;8.584;2022-12-10T07:56:23;0.53;77.62
66522;SHT31;53349;53.538;8.584;2022-12-10T07:58:50;0.53;77.51
66522;SHT31;53349;53.538;8.584;2022-12-10T08:01:18;0.59;77.49
66522;SHT31;53349;53.538;8.584;2022-12-10T08:03:44;0.59;77.43
66522;SHT31;53349;53.538;8.584;2022-12-10T08:06:20;0.63;77.45
66522;SHT31;53349;53.538;8.584;2022-12-10T08:08:47;0.67;77.24
66522;SHT31;53349;53.538;8.584;2022-12-10T08:11:14;0.73;77.12
66522;SHT31;53349;53.538;8.584;2022-12-10T08:13:40;0.73;77.06
66522;SHT31;53349;53.538;8.584;2022-12-10T08:16:14;0.70;76.57
66522;SHT31;53349;53.538;8.584;2022-12-10T08:18:40;0.72;76.41
66522;SHT31;53349;53.538;8.584;2022-12-10T08:21:14;0.72;76.39
66522;SHT31;53349;53.538;8.584;2022-12-10T08:23:40;0.75;76.33
66522;SHT31;53349;53.538;8.584;2022-12-10T08:26:09;0.75;76.41
66522;SHT31;53349;53.538;8.584;2022-12-10T08:28:35;0.75;76.23
66522;SHT31;53349;53.538;8.584;2022-12-10T08:31:02;0.77;76.00
66522;SHT31;53349;53.538;8.584;2022-12-10T08:33:27;0.80;75.85
66522;SHT31;53349;53.538;8.584;2022-12-10T08:35:57;0.83;75.82
66522;SHT31;53349;53.538;8.584;2022-12-10T08:38:22;0.81;75.52
66522;SHT31;53349;53.538;8.584;2022-12-10T08:40:48;0.87;75.48
66522;SHT31;53349;53.538;8.584;2022-12-10T08:43:13;0.88;75.51
66522;SHT31;53349;53.538;8.584;2022-12-10T08:45:39;0.88;75.36
66522;SHT31;53349;53.538;8.584;2022-12-10T08:48:04;0.88;75.31
66522;SHT31;53349;53.538;8.584;2022-12-10T08:50:30;0.91;75.09
66522;SHT31;53349;53.538;8.584;2022-12-10T08:52:55;0.90;75.03
66522;SHT31;53349;53.538;8.584;2022-12-10T08:55:20;0.90;74.92
66522;SHT31;53349;53.538;8.584;2022-12-10T08:57:46;0.93;74.84
66522;SHT31;53349;53.538;8.584;2022-12-10T09:00:12;0.93;74.99
66522;SHT31;53349;53.538;8.584;2022-12-10T09:02:38;0.96;74.91
66522;SHT31;53349;53.538;8.584;2022-12-10T09:05:04;0.97;74.63
66522;SHT31;53349;53.538;8.584;2022-12-10T09:07:30;0.97;74.31
66522;SHT31;53349;53.538;8.584;2022-12-10T09:09:55;0.98;74.05
66522;SHT31;53349;53.538;8.584;2022-12-10T09:12:20;1.00;74.05
66522;SHT31;53349;53.538;8.584;2022-12-10T09:14:46;1.03;74.00
66522;SHT31;53349;53.538;8.584;2022-12-10T09:17:11;1.00;74.01
66522;SHT31;53349;53.538;8.584;2022-12-10T09:19:36;1.01;74.24
66522;SHT31;53349;53.538;8.584;2022-12-10T09:22:02;1.01;74.03
66522;SHT31;53349;53.538;8.584;2022-12-10T09:24:28;1.03;73.96
66522;SHT31;53349;53.538;8.584;2022-12-10T09:26:53;1.08;73.75
66522;SHT31;53349;53.538;8.584;2022-12-10T09:29:19;1.03;73.57
66522;SHT31;53349;53.538;8.584;2022-12-10T09:31:44;1.04;73.53
66522;SHT31;53349;53.538;8.584;2022-12-10T09:34:10;1.03;73.63
66522;SHT31;53349;53.538;8.584;2022-12-10T09:36:35;1.04;73.64
66522;SHT31;53349;53.538;8.584;2022-12-10T09:39:01;1.03;73.48
66522;SHT31;53349;53.538;8.584;2022-12-10T09:41:42;1.01;73.73
66522;SHT31;53349;53.538;8.584;2022-12-10T09:46:58;1.14;73.88
66522;SHT31;53349;53.538;8.584;2022-12-10T09:49:49;1.13;73.61
66522;SHT31;53349;53.538;8.584;2022-12-10T09:52:18;1.15;73.65
66522;SHT31;53349;53.538;8.584;2022-12-10T09:54:57;1.18;73.61
66522;SHT31;53349;53.538;8.584;2022-12-10T09:57:29;1.17;73.34
66522;SHT31;53349;53.538;8.584;2022-12-10T09:59:56;1.13;72.93
66522;SHT31;53349;53.538;8.584;2022-12-10T10:02:25;1.17;73.14
66522;SHT31;53349;53.538;8.584;2022-12-10T10:04:59;1.20;72.98
66522;SHT31;53349;53.538;8.584;2022-12-10T10:07:28;1.23;73.03
66522;SHT31;53349;53.538;8.584;2022-12-10T10:10:06;1.23;72.94
66522;SHT31;53349;53.538;8.584;2022-12-10T10:12:33;1.23;72.81
66522;SHT31;53349;53.538;8.584;2022-12-10T10:15:10;1.25;72.85
66522;SHT31;53349;53.538;8.584;2022-12-10T10:17:37;1.30;72.71
66522;SHT31;53349;53.538;8.584;2022-12-10T10:20:04;1.24;72.65
66522;SHT31;53349;53.538;8.584;2022-12-10T10:22:30;1.23;72.40
66522;SHT31;53349;53.538;8.584;2022-12-10T10:24:59;1.27;72.41
66522;SHT31;53349;53.538;8.584;2022-12-10T10:27:29;1.25;72.60
66522;SHT31;53349;53.538;8.584;2022-12-10T10:29:56;1.27;72.50
66522;SHT31;53349;53.538;8.584;2022-12-10T10:32:44;1.35;72.56
66522;SHT31;53349;53.538;8.584;2022-12-10T10:35:34;1.28;72.57
66522;SHT31;53349;53.538;8.584;2022-12-10T10:38:08;1.32;72.62
66522;SHT31;53349;53.538;8.584;2022-12-10T10:40:43;1.32;72.53
66522;SHT31;53349;53.538;8.584;2022-12-10T10:43:23;1.35;72.23
66522;SHT31;53349;53.538;8.584;2022-12-10T10:45:52;1.37;72.16
66522;SHT31;53349;53.538;8.584;2022-12-10T10:48:22;1.34;72.15
66522;SHT31;53349;53.538;8.584;2022-12-10T10:53:29;1.32;72.35
66522;SHT31;53349;53.538;8.584;2022-12-10T10:55:58;1.32;72.62
66522;SHT31;53349;53.538;8.584;2022-12-10T10:58:24;1.32;72.19
66522;SHT31;53349;53.538;8.584;2022-12-10T11:00:59;1.37;72.28
66522;SHT31;53349;53.538;8.584;2022-12-10T11:03:27;1.32;72.21
66522;SHT31;53349;53.538;8.584;2022-12-10T11:05:56;1.38;72.27
66522;SHT31;53349;53.538;8.584;2022-12-10T11:08:24;1.46;72.48
66522;SHT31;53349;53.538;8.584;2022-12-10T11:11:02;1.41;72.23
66522;SHT31;53349;53.538;8.584;2022-12-10T11:13:34;1.37;72.27
66522;SHT31;53349;53.538;8.584;2022-12-10T11:16:25;1.37;71.99
66522;SHT31;53349;53.538;8.584;2022-12-10T11:19:20;1.41;72.02
66522;SHT31;53349;53.538;8.584;2022-12-10T11:21:47;1.39;71.92
66522;SHT31;53349;53.538;8.584;2022-12-10T11:24:16;1.39;71.87
66522;SHT31;53349;53.538;8.584;2022-12-10T11:35:36;1.34;71.89
66522;SHT31;53349;53.538;8.584;2022-12-10T11:41:15;1.44;71.88
66522;SHT31;53349;53.538;8.584;2022-12-10T11:49:42;1.48;71.66
66522;SHT31;53349;53.538;8.584;2022-12-10T11:52:22;1.51;72.35
66522;SHT31;53349;53.538;8.584;2022-12-10T12:00:57;1.65;72.59
66522;SHT31;53349;53.538;8.584;2022-12-10T12:14:59;1.89;71.40
66522;SHT31;53349;53.538;8.584;2022-12-10T12:17:40;1.76;70.83
66522;SHT31;53349;53.538;8.584;2022-12-10T12:22:53;1.75;70.95
66522;SHT31;53349;53.538;8.584;2022-12-10T12:25:27;1.73;71.05
66522;SHT31;53349;53.538;8.584;2022-12-10T12:28:11;1.63;70.93
66522;SHT31;53349;53.538;8.584;2022-12-10T12:30:43;1.66;71.06
66522;SHT31;53349;53.538;8.584;2022-12-10T12:33:39;1.69;71.20
66522;SHT31;53349;53.538;8.584;2022-12-10T12:36:21;1.68;71.17
66522;SHT31;53349;53.538;8.584;2022-12-10T12:42:36;1.72;71.21
66522;SHT31;53349;53.538;8.584;2022-12-10T12:47:41;1.69;71.12
66522;SHT31;53349;53.538;8.584;2022-12-10T12:50:40;1.65;71.14
66522;SHT31;53349;53.538;8.584;2022-12-10T12:53:11;1.65;71.00
66522;SHT31;53349;53.538;8.584;2022-12-10T12:55:44;1.62;71.13
66522;SHT31;53349;53.538;8.584;2022-12-10T13:01:00;1.65;71.41
66522;SHT31;53349;53.538;8.584;2022-12-10T13:03:39;1.58;71.36
66522;SHT31;53349;53.538;8.584;2022-12-10T13:06:34;1.52;71.26
66522;SHT31;53349;53.538;8.584;2022-12-10T13:22:11;1.60;71.48
66522;SHT31;53349;53.538;8.584;2022-12-10T13:27:36;1.58;70.48
66522;SHT31;53349;53.538;8.584;2022-12-10T13:32:53;1.59;71.17
66522;SHT31;53349;53.538;8.584;2022-12-10T13:35:27;1.60;71.19
66522;SHT31;53349;53.538;8.584;2022-12-10T13:38:05;1.63;71.37
66522;SHT31;53349;53.538;8.584;2022-12-10T13:40:42;1.63;71.45
66522;SHT31;53349;53.538;8.584;2022-12-10T13:48:53;1.66;71.64
66522;SHT31;53349;53.538;8.584;2022-12-10T13:54:22;1.65;71.66
66522;SHT31;53349;53.538;8.584;2022-12-10T14:00:22;1.56;71.35
66522;SHT31;53349;53.538;8.584;2022-12-10T14:03:19;1.54;71.41
66522;SHT31;53349;53.538;8.584;2022-12-10T14:06:14;1.54;71.60
66522;SHT31;53349;53.538;8.584;2022-12-10T14:08:57;1.49;71.56
66522;SHT31;53349;53.538;8.584;2022-12-10T14:11:31;1.52;71.79
66522;SHT31;53349;53.538;8.584;2022-12-10T14:13:59;1.54;71.93
66522;SHT31;53349;53.538;8.584;2022-12-10T14:16:28;1.58;72.10
66522;SHT31;53349;53.538;8.584;2022-12-10T14:18:59;1.58;72.35
66522;SHT31;53349;53.538;8.584;2022-12-10T14:21:26;1.62;72.36
66522;SHT31;53349;53.538;8.584;2022-12-10T14:23:58;1.62;72.34
66522;SHT31;53349;53.538;8.584;2022-12-10T14:26:32;1.54;72.13
66522;SHT31;53349;53.538;8.584;2022-12-10T14:29:00;1.60;72.57
66522;SHT31;53349;53.538;8.584;2022-12-10T14:31:32;1.65;72.54
66522;SHT31;53349;53.538;8.584;2022-12-10T14:34:07;1.60;72.41
66522;SHT31;53349;53.538;8.584;2022-12-10T14:36:37;1.63;72.34
66522;SHT31;53349;53.538;8.584;2022-12-10T14:39:16;1.59;71.88
66522;SHT31;53349;53.538;8.584;2022-12-10T14:41:42;1.58;72.01
66522;SHT31;53349;53.538;8.584;2022-12-10T14:44:11;1.59;72.18
66522;SHT31;53349;53.538;8.584;2022-12-10T14:46:38;1.60;72.32
66522;SHT31;53349;53.538;8.584;2022-12-10T14:49:04;1.59;72.16
66522;SHT31;53349;53.538;8.584;2022-12-10T14:51:33;1.55;71.81
66522;SHT31;53349;53.538;8.584;2022-12-10T14:53:59;1.54;71.76
66522;SHT31;53349;53.538;8.584;2022-12-10T14:56:32;1.51;71.64
66522;SHT31;53349;53.538;8.584;2022-12-10T14:59:12;1.54;71.82
66522;SHT31;53349;53.538;8.584;2022-12-10T15:01:42;1.54;72.11
66522;SHT31;53349;53.538;8.584;2022-12-10T15:04:17;1.62;71.95
66522;SHT31;53349;53.538;8.584;2022-12-10T15:06:43;1.63;71.99
66522;SHT31;53349;53.538;8.584;2022-12-10T15:09:15;1.62;71.60
66522;SHT31;53349;53.538;8.584;2022-12-10T15:11:41;1.59;71.51
66522;SHT31;53349;53.538;8.584;2022-12-10T15:14:15;1.55;71.60
66522;SHT31;53349;53.538;8.584;2022-12-10T15:16:43;1.58;71.64
66522;SHT31;53349;53.538;8.584;2022-12-10T15:19:17;1.54;71.38
66522;SHT31;53349;53.538;8.584;2022-12-10T15:21:44;1.51;71.63
66522;SHT31;53349;53.538;8.584;2022-12-10T15:24:21;1.39;71.58
66522;SHT31;53349;53.538;8.584;2022-12-10T15:26:49;1.39;71.47
66522;SHT31;53349;53.538;8.584;2022-12-10T15:31:55;1.35;71.21
66522;SHT31;53349;53.538;8.584;2022-12-10T15:34:25;1.31;71.62
66522;SHT31;53349;53.538;8.584;2022-12-10T15:36:53;1.25;71.49
66522;SHT31;53349;53.538;8.584;2022-12-10T15:39:26;1.28;71.26
66522;SHT31;53349;53.538;8.584;2022-12-10T15:44:36;1.31;71.16
66522;SHT31;53349;53.538;8.584;2022-12-10T15:47:19;1.31;71.19
66522;SHT31;53349;53.538;8.584;2022-12-10T15:49:46;1.24;71.36
66522;SHT31;53349;53.538;8.584;2022-12-10T15:52:24;1.21;71.48
66522;SHT31;53349;53.538;8.584;2022-12-10T15:54:52;1.21;71.45
66522;SHT31;53349;53.538;8.584;2022-12-10T15:57:20;1.20;71.37
66522;SHT31;53349;53.538;8.584;2022-12-10T15:59:50;1.21;71.46
66522;SHT31;53349;53.538;8.584;2022-12-10T16:04:53;1.14;71.32
66522;SHT31;53349;53.538;8.584;2022-12-10T16:07:19;1.17;71.48
66522;SHT31;53349;53.538;8.584;2022-12-10T16:09:45;1.14;71.71
66522;SHT31;53349;53.538;8.584;2022-12-10T16:12:15;1.14;71.76
66522;SHT31;53349;53.538;8.584;2022-12-10T16:14:46;1.13;71.54
66522;SHT31;53349;53.538;8.584;2022-12-10T16:17:12;1.13;71.61
66522;SHT31;53349;53.538;8.584;2022-12-10T16:19:38;1.13;71.38
66522;SHT31;53349;53.538;8.584;2022-12-10T16:22:04;1.14;71.38
66522;SHT31;53349;53.538;8.584;2022-12-10T16:24:33;1.05;71.22
66522;SHT31;53349;53.538;8.584;2022-12-10T16:26:58;1.03;71.46
66522;SHT31;53349;53.538;8.584;2022-12-10T16:29:23;1.08;71.36
66522;SHT31;53349;53.538;8.584;2022-12-10T16:31:52;1.01;71.38
66522;SHT31;53349;53.538;8.584;2022-12-10T16:34:17;1.07;71.40
66522;SHT31;53349;53.538;8.584;2022-12-10T16:36:43;1.08;71.44
66522;SHT31;53349;53.538;8.584;2022-12-10T16:39:08;1.07;71.38
66522;SHT31;53349;53.538;8.584;2022-12-10T16:41:34;1.08;71.21
66522;SHT31;53349;53.538;8.584;2022-12-10T16:44:03;1.09;71.29
66522;SHT31;53349;53.538;8.584;2022-12-10T16:46:28;1.01;70.99
66522;SHT31;53349;53.538;8.584;2022-12-10T16:48:55;1.00;70.86
66522;SHT31;53349;53.538;8.584;2022-12-10T16:51:26;1.13;72.47
66522;SHT31;53349;53.538;8.584;2022-12-10T16:53:54;1.09;71.04
66522;SHT31;53349;53.538;8.584;2022-12-10T16:56:19;1.07;70.84
66522;SHT31;53349;53.538;8.584;2022-12-10T16:58:47;1.05;70.92
66522;SHT31;53349;53.538;8.584;2022-12-10T17:03:43;1.05;70.89
66522;SHT31;53349;53.538;8.584;2022-12-10T17:06:14;1.05;70.88
66522;SHT31;53349;53.538;8.584;2022-12-10T17:08:39;1.07;70.96
66522;SHT31;53349;53.538;8.584;2022-12-10T17:11:15;1.07;70.59
66522;SHT31;53349;53.538;8.584;2022-12-10T17:13:59;1.03;70.51
66522;SHT31;53349;53.538;8.584;2022-12-10T17:16:25;1.07;70.56
66522;SHT31;53349;53.538;8.584;2022-12-10T17:18:50;1.05;70.68
66522;SHT31;53349;53.538;8.584;2022-12-10T17:21:16;1.04;70.58
66522;SHT31;53349;53.538;8.584;2022-12-10T17:23:41;1.03;70.71
66522;SHT31;53349;53.538;8.584;2022-12-10T17:26:22;1.00;70.87
66522;SHT31;53349;53.538;8.584;2022-12-10T17:28:51;0.98;70.87
66522;SHT31;53349;53.538;8.584;2022-12-10T17:31:17;1.00;70.85
66522;SHT31;53349;53.538;8.584;2022-12-10T17:33:43;0.96;70.75
66522;SHT31;53349;53.538;8.584;2022-12-10T17:36:09;0.96;70.82
66522;SHT31;53349;53.538;8.584;2022-12-10T17:38:36;0.91;70.85
66522;SHT31;53349;53.538;8.584;2022-12-10T17:41:01;0.94;70.91